Portada
METAR-TAF:

METAR-TAF

Aeroports :

Biskra, Algèria

latitud: 34-48N, longitud: 005-44E, altitud: 87 m

Observació

L'informe es va fer fa 51 minuts, a les 08:00 UTC
Vent 5 kt del Nord/Nord-Oest
Temperatura 33°C
Humitat 19%
Pressió 1012 hPa
Visibilitat 10 km o més
sense núvols per sota de 1500 mi sense presència de cumulonimbus.

METAR: DAUB 170800Z 34005KT CAVOK 33/06 Q1012

Hora: 09:51 (08:51 UTC)

Pronòstic

L'informe es va fer fa 3 hores i 51 minuts, a les 05:00 UTC
Pronòstic vàlid del 17 a les 06 UTC al 18 a les 06 UTC
Vent 8 kt del Nord/Nord-Oest
Visibilitat 10 km o més
sense núvols per sota de 1500 mi sense presència de cumulonimbus.
Probabilitat 30% :
Temporalment
l' 17 a les 12 UTC al 17 a les 20 UTC
Vent 12 kt del Oest/Sud-Oest
Escasses núvols a una alçada de 3300 ft, Cumulus congestus.

TAF: DAUB 170500Z 1706/1806 34008KT CAVOK PROB30 TEMPO 1712/1720 24012KT FEW033TCU

Observacions i pronòstics meteorològics de més de 4000 aeroports (METAR i TAF).

Les estacions disponibles són els punts grocs i vermells al mapa.

Posi el ratolí al punt desitjat per veure el nom de l'estació.

Feu clic per veure les observacions i els pronòstics meteorològics.

Per canviar el mapa: feu clic els botons verds amb una creu de color negre per apropar; al botó verd amb un guió per allunyar la imatge; o en les fletxes verdes per a mapes adjacents.


METAR-TAF: